sensor_id;sensor_type;location;lat;lon;timestamp;P1;durP1;ratioP1;P2;durP2;ratioP2
59038;SDS011;44824;43.376;19.630;2022-12-18T00:01:22;9.45;;;4.85;;
59038;SDS011;44824;43.376;19.630;2022-12-18T00:03:48;8.68;;;4.63;;
59038;SDS011;44824;43.376;19.630;2022-12-18T00:06:15;9.40;;;5.63;;
59038;SDS011;44824;43.376;19.630;2022-12-18T00:11:21;10.15;;;5.93;;
59038;SDS011;44824;43.376;19.630;2022-12-18T00:38:23;12.48;;;7.43;;
59038;SDS011;44824;43.376;19.630;2022-12-18T00:50:07;8.75;;;4.82;;
59038;SDS011;44824;43.376;19.630;2022-12-18T00:52:55;8.75;;;4.65;;
59038;SDS011;44824;43.376;19.630;2022-12-18T01:01:46;9.20;;;5.60;;
59038;SDS011;44824;43.376;19.630;2022-12-18T01:04:27;9.13;;;4.90;;
59038;SDS011;44824;43.376;19.630;2022-12-18T01:07:07;8.60;;;4.47;;
59038;SDS011;44824;43.376;19.630;2022-12-18T01:09:53;8.70;;;4.22;;
59038;SDS011;44824;43.376;19.630;2022-12-18T01:15:22;8.02;;;4.40;;
59038;SDS011;44824;43.376;19.630;2022-12-18T01:17:48;11.10;;;5.13;;
59038;SDS011;44824;43.376;19.630;2022-12-18T01:20:17;9.52;;;4.75;;
59038;SDS011;44824;43.376;19.630;2022-12-18T01:22:43;8.93;;;4.70;;
59038;SDS011;44824;43.376;19.630;2022-12-18T01:25:09;9.55;;;5.28;;
59038;SDS011;44824;43.376;19.630;2022-12-18T01:27:47;8.60;;;4.80;;
59038;SDS011;44824;43.376;19.630;2022-12-18T01:30:13;10.10;;;5.43;;
59038;SDS011;44824;43.376;19.630;2022-12-18T01:32:40;8.65;;;5.28;;
59038;SDS011;44824;43.376;19.630;2022-12-18T01:35:06;9.73;;;5.57;;
59038;SDS011;44824;43.376;19.630;2022-12-18T01:37:32;9.57;;;5.27;;
59038;SDS011;44824;43.376;19.630;2022-12-18T01:40:01;9.73;;;4.85;;
59038;SDS011;44824;43.376;19.630;2022-12-18T01:49:31;10.00;;;5.20;;
59038;SDS011;44824;43.376;19.630;2022-12-18T01:52:03;9.13;;;4.90;;
59038;SDS011;44824;43.376;19.630;2022-12-18T02:00:38;8.80;;;4.82;;
59038;SDS011;44824;43.376;19.630;2022-12-18T02:09:31;9.20;;;5.22;;
59038;SDS011;44824;43.376;19.630;2022-12-18T02:18:21;9.70;;;4.95;;
59038;SDS011;44824;43.376;19.630;2022-12-18T02:20:54;9.27;;;5.05;;
59038;SDS011;44824;43.376;19.630;2022-12-18T02:25:57;8.18;;;4.93;;
59038;SDS011;44824;43.376;19.630;2022-12-18T02:31:31;12.02;;;5.63;;
59038;SDS011;44824;43.376;19.630;2022-12-18T02:34:04;9.40;;;5.22;;
59038;SDS011;44824;43.376;19.630;2022-12-18T02:36:34;10.13;;;5.60;;
59038;SDS011;44824;43.376;19.630;2022-12-18T02:39:09;10.55;;;5.85;;
59038;SDS011;44824;43.376;19.630;2022-12-18T02:41:55;11.18;;;5.95;;
59038;SDS011;44824;43.376;19.630;2022-12-18T02:44:21;10.05;;;5.82;;
59038;SDS011;44824;43.376;19.630;2022-12-18T02:46:50;9.10;;;5.22;;
59038;SDS011;44824;43.376;19.630;2022-12-18T02:54:49;10.25;;;5.63;;
59038;SDS011;44824;43.376;19.630;2022-12-18T03:03:07;10.80;;;6.10;;
59038;SDS011;44824;43.376;19.630;2022-12-18T03:05:39;9.95;;;5.85;;
59038;SDS011;44824;43.376;19.630;2022-12-18T03:08:14;11.10;;;6.05;;
59038;SDS011;44824;43.376;19.630;2022-12-18T03:10:53;11.20;;;6.32;;
59038;SDS011;44824;43.376;19.630;2022-12-18T03:16:10;11.65;;;6.43;;
59038;SDS011;44824;43.376;19.630;2022-12-18T03:18:52;11.05;;;6.43;;
59038;SDS011;44824;43.376;19.630;2022-12-18T03:24:32;11.95;;;6.68;;
59038;SDS011;44824;43.376;19.630;2022-12-18T03:27:14;10.90;;;6.82;;
59038;SDS011;44824;43.376;19.630;2022-12-18T03:30:01;12.93;;;7.10;;
59038;SDS011;44824;43.376;19.630;2022-12-18T03:35:19;12.88;;;7.57;;
59038;SDS011;44824;43.376;19.630;2022-12-18T03:37:47;13.93;;;7.68;;
59038;SDS011;44824;43.376;19.630;2022-12-18T03:48:49;13.88;;;8.10;;
59038;SDS011;44824;43.376;19.630;2022-12-18T03:51:53;13.48;;;8.10;;
59038;SDS011;44824;43.376;19.630;2022-12-18T03:54:38;14.05;;;8.50;;
59038;SDS011;44824;43.376;19.630;2022-12-18T03:57:07;14.82;;;8.43;;
59038;SDS011;44824;43.376;19.630;2022-12-18T03:59:35;13.15;;;7.80;;
59038;SDS011;44824;43.376;19.630;2022-12-18T04:02:03;13.20;;;8.32;;
59038;SDS011;44824;43.376;19.630;2022-12-18T04:04:30;12.88;;;8.25;;
59038;SDS011;44824;43.376;19.630;2022-12-18T04:06:57;15.15;;;8.73;;
59038;SDS011;44824;43.376;19.630;2022-12-18T04:09:24;15.75;;;9.65;;
59038;SDS011;44824;43.376;19.630;2022-12-18T04:11:50;13.07;;;8.45;;
59038;SDS011;44824;43.376;19.630;2022-12-18T04:17:07;27.92;;;16.27;;
59038;SDS011;44824;43.376;19.630;2022-12-18T04:19:33;17.55;;;10.82;;
59038;SDS011;44824;43.376;19.630;2022-12-18T04:22:12;17.02;;;9.77;;
59038;SDS011;44824;43.376;19.630;2022-12-18T04:24:41;14.50;;;8.93;;
59038;SDS011;44824;43.376;19.630;2022-12-18T04:27:07;13.73;;;8.43;;
59038;SDS011;44824;43.376;19.630;2022-12-18T04:29:36;18.20;;;9.68;;
59038;SDS011;44824;43.376;19.630;2022-12-18T04:35:01;14.17;;;8.90;;
59038;SDS011;44824;43.376;19.630;2022-12-18T04:37:35;14.93;;;8.98;;
59038;SDS011;44824;43.376;19.630;2022-12-18T04:40:05;13.68;;;8.32;;
59038;SDS011;44824;43.376;19.630;2022-12-18T04:42:40;13.48;;;8.60;;
59038;SDS011;44824;43.376;19.630;2022-12-18T04:45:12;13.80;;;8.63;;
59038;SDS011;44824;43.376;19.630;2022-12-18T04:47:41;14.52;;;8.93;;
59038;SDS011;44824;43.376;19.630;2022-12-18T04:50:23;16.13;;;9.85;;
59038;SDS011;44824;43.376;19.630;2022-12-18T04:52:49;13.98;;;8.75;;
59038;SDS011;44824;43.376;19.630;2022-12-18T05:10:08;16.40;;;9.57;;
59038;SDS011;44824;43.376;19.630;2022-12-18T05:12:53;15.23;;;9.65;;
59038;SDS011;44824;43.376;19.630;2022-12-18T05:15:38;15.95;;;10.15;;
59038;SDS011;44824;43.376;19.630;2022-12-18T05:18:04;16.08;;;9.55;;
59038;SDS011;44824;43.376;19.630;2022-12-18T05:20:30;15.85;;;10.00;;
59038;SDS011;44824;43.376;19.630;2022-12-18T05:23:00;15.93;;;9.07;;
59038;SDS011;44824;43.376;19.630;2022-12-18T05:25:30;14.88;;;9.43;;
59038;SDS011;44824;43.376;19.630;2022-12-18T05:31:05;14.48;;;8.80;;
59038;SDS011;44824;43.376;19.630;2022-12-18T05:37:00;15.82;;;9.70;;
59038;SDS011;44824;43.376;19.630;2022-12-18T05:39:35;17.08;;;9.82;;
59038;SDS011;44824;43.376;19.630;2022-12-18T05:42:10;17.42;;;10.13;;
59038;SDS011;44824;43.376;19.630;2022-12-18T05:44:36;18.63;;;10.68;;
59038;SDS011;44824;43.376;19.630;2022-12-18T05:47:02;17.75;;;10.68;;
59038;SDS011;44824;43.376;19.630;2022-12-18T05:49:29;16.88;;;10.15;;
59038;SDS011;44824;43.376;19.630;2022-12-18T05:51:55;15.13;;;9.82;;
59038;SDS011;44824;43.376;19.630;2022-12-18T05:54:21;16.08;;;10.20;;
59038;SDS011;44824;43.376;19.630;2022-12-18T05:56:47;16.52;;;10.13;;
59038;SDS011;44824;43.376;19.630;2022-12-18T06:01:58;15.93;;;9.95;;
59038;SDS011;44824;43.376;19.630;2022-12-18T06:04:30;18.50;;;10.40;;
59038;SDS011;44824;43.376;19.630;2022-12-18T06:06:56;16.60;;;10.00;;
59038;SDS011;44824;43.376;19.630;2022-12-18T06:09:22;16.67;;;9.68;;
59038;SDS011;44824;43.376;19.630;2022-12-18T06:11:49;16.52;;;9.98;;
59038;SDS011;44824;43.376;19.630;2022-12-18T06:14:18;17.83;;;10.43;;
59038;SDS011;44824;43.376;19.630;2022-12-18T06:16:44;17.00;;;10.32;;
59038;SDS011;44824;43.376;19.630;2022-12-18T06:19:17;18.05;;;10.43;;
59038;SDS011;44824;43.376;19.630;2022-12-18T06:21:43;16.38;;;10.20;;
59038;SDS011;44824;43.376;19.630;2022-12-18T06:24:09;17.90;;;10.50;;
59038;SDS011;44824;43.376;19.630;2022-12-18T06:26:38;16.77;;;9.63;;
59038;SDS011;44824;43.376;19.630;2022-12-18T06:29:19;15.40;;;9.48;;
59038;SDS011;44824;43.376;19.630;2022-12-18T06:31:45;18.10;;;10.38;;
59038;SDS011;44824;43.376;19.630;2022-12-18T06:34:14;16.42;;;9.98;;
59038;SDS011;44824;43.376;19.630;2022-12-18T06:36:43;17.92;;;10.90;;
59038;SDS011;44824;43.376;19.630;2022-12-18T06:39:09;18.75;;;10.50;;
59038;SDS011;44824;43.376;19.630;2022-12-18T06:41:35;21.30;;;11.63;;
59038;SDS011;44824;43.376;19.630;2022-12-18T06:44:01;30.88;;;10.85;;
59038;SDS011;44824;43.376;19.630;2022-12-18T06:46:27;17.60;;;10.65;;
59038;SDS011;44824;43.376;19.630;2022-12-18T06:48:53;16.90;;;10.30;;
59038;SDS011;44824;43.376;19.630;2022-12-18T06:51:37;18.80;;;11.60;;
59038;SDS011;44824;43.376;19.630;2022-12-18T06:54:03;17.73;;;11.05;;
59038;SDS011;44824;43.376;19.630;2022-12-18T06:56:31;22.45;;;12.13;;
59038;SDS011;44824;43.376;19.630;2022-12-18T06:59:01;19.60;;;12.30;;
59038;SDS011;44824;43.376;19.630;2022-12-18T07:01:27;23.63;;;14.60;;
59038;SDS011;44824;43.376;19.630;2022-12-18T07:03:54;20.35;;;12.60;;
59038;SDS011;44824;43.376;19.630;2022-12-18T07:06:20;26.83;;;14.55;;
59038;SDS011;44824;43.376;19.630;2022-12-18T07:08:47;19.42;;;12.23;;
59038;SDS011;44824;43.376;19.630;2022-12-18T07:11:13;19.20;;;11.90;;
59038;SDS011;44824;43.376;19.630;2022-12-18T07:13:39;23.33;;;13.05;;
59038;SDS011;44824;43.376;19.630;2022-12-18T07:16:09;27.50;;;17.83;;
59038;SDS011;44824;43.376;19.630;2022-12-18T07:21:02;20.15;;;12.38;;
59038;SDS011;44824;43.376;19.630;2022-12-18T07:23:29;18.38;;;11.57;;
59038;SDS011;44824;43.376;19.630;2022-12-18T07:25:55;17.42;;;10.80;;
59038;SDS011;44824;43.376;19.630;2022-12-18T07:28:21;19.70;;;11.70;;
59038;SDS011;44824;43.376;19.630;2022-12-18T07:43:01;21.08;;;11.90;;
59038;SDS011;44824;43.376;19.630;2022-12-18T07:45:27;20.95;;;12.32;;
59038;SDS011;44824;43.376;19.630;2022-12-18T07:47:56;24.92;;;14.55;;
59038;SDS011;44824;43.376;19.630;2022-12-18T07:50:22;23.85;;;14.95;;
59038;SDS011;44824;43.376;19.630;2022-12-18T07:52:49;21.35;;;12.77;;
59038;SDS011;44824;43.376;19.630;2022-12-18T07:55:15;20.70;;;12.35;;
59038;SDS011;44824;43.376;19.630;2022-12-18T07:57:41;19.48;;;11.77;;
59038;SDS011;44824;43.376;19.630;2022-12-18T08:00:08;21.50;;;13.50;;
59038;SDS011;44824;43.376;19.630;2022-12-18T08:02:34;29.90;;;19.27;;
59038;SDS011;44824;43.376;19.630;2022-12-18T08:05:00;18.67;;;11.88;;
59038;SDS011;44824;43.376;19.630;2022-12-18T08:07:27;20.05;;;11.90;;
59038;SDS011;44824;43.376;19.630;2022-12-18T08:09:56;19.30;;;12.40;;
59038;SDS011;44824;43.376;19.630;2022-12-18T08:12:24;18.60;;;11.38;;
59038;SDS011;44824;43.376;19.630;2022-12-18T08:56:44;17.45;;;10.77;;
59038;SDS011;44824;43.376;19.630;2022-12-18T09:23:39;17.63;;;11.70;;
59038;SDS011;44824;43.376;19.630;2022-12-18T09:29:36;21.17;;;11.63;;
59038;SDS011;44824;43.376;19.630;2022-12-18T09:35:06;21.63;;;12.13;;
59038;SDS011;44824;43.376;19.630;2022-12-18T09:37:35;22.58;;;13.75;;
59038;SDS011;44824;43.376;19.630;2022-12-18T09:40:13;24.20;;;14.15;;
59038;SDS011;44824;43.376;19.630;2022-12-18T09:42:41;24.00;;;17.20;;
59038;SDS011;44824;43.376;19.630;2022-12-18T09:48:27;29.45;;;17.27;;
59038;SDS011;44824;43.376;19.630;2022-12-18T09:50:56;20.10;;;11.65;;
59038;SDS011;44824;43.376;19.630;2022-12-18T09:53:24;19.70;;;11.43;;
59038;SDS011;44824;43.376;19.630;2022-12-18T09:55:52;22.42;;;13.07;;
59038;SDS011;44824;43.376;19.630;2022-12-18T10:30:26;23.20;;;13.75;;
59038;SDS011;44824;43.376;19.630;2022-12-18T10:33:02;20.65;;;10.48;;
59038;SDS011;44824;43.376;19.630;2022-12-18T10:35:28;20.08;;;11.45;;
59038;SDS011;44824;43.376;19.630;2022-12-18T10:38:03;28.77;;;16.00;;
59038;SDS011;44824;43.376;19.630;2022-12-18T10:40:29;21.70;;;12.55;;
59038;SDS011;44824;43.376;19.630;2022-12-18T10:43:09;29.60;;;17.43;;
59038;SDS011;44824;43.376;19.630;2022-12-18T11:29:45;31.48;;;20.27;;
59038;SDS011;44824;43.376;19.630;2022-12-18T11:34:50;21.35;;;12.55;;
59038;SDS011;44824;43.376;19.630;2022-12-18T11:37:17;20.27;;;9.97;;
59038;SDS011;44824;43.376;19.630;2022-12-18T11:39:50;27.73;;;17.90;;
59038;SDS011;44824;43.376;19.630;2022-12-18T11:42:24;23.30;;;13.52;;
59038;SDS011;44824;43.376;19.630;2022-12-18T12:38:40;31.45;;;18.60;;
59038;SDS011;44824;43.376;19.630;2022-12-18T12:41:09;19.73;;;10.30;;
59038;SDS011;44824;43.376;19.630;2022-12-18T12:43:58;23.92;;;15.18;;
59038;SDS011;44824;43.376;19.630;2022-12-18T12:46:37;17.20;;;8.93;;
59038;SDS011;44824;43.376;19.630;2022-12-18T12:49:09;22.60;;;11.85;;
59038;SDS011;44824;43.376;19.630;2022-12-18T12:51:38;28.23;;;17.15;;
59038;SDS011;44824;43.376;19.630;2022-12-18T12:54:08;29.23;;;17.48;;
59038;SDS011;44824;43.376;19.630;2022-12-18T12:56:39;41.90;;;26.02;;
59038;SDS011;44824;43.376;19.630;2022-12-18T12:59:13;31.42;;;18.95;;
59038;SDS011;44824;43.376;19.630;2022-12-18T13:04:34;22.50;;;11.52;;
59038;SDS011;44824;43.376;19.630;2022-12-18T13:07:24;21.83;;;12.40;;
59038;SDS011;44824;43.376;19.630;2022-12-18T13:12:50;21.98;;;12.50;;
59038;SDS011;44824;43.376;19.630;2022-12-18T13:18:05;21.63;;;13.35;;
59038;SDS011;44824;43.376;19.630;2022-12-18T13:25:49;22.05;;;14.90;;
59038;SDS011;44824;43.376;19.630;2022-12-18T13:30:50;18.52;;;11.57;;
59038;SDS011;44824;43.376;19.630;2022-12-18T13:39:45;15.65;;;9.55;;
59038;SDS011;44824;43.376;19.630;2022-12-18T14:06:06;36.22;;;23.23;;
59038;SDS011;44824;43.376;19.630;2022-12-18T14:08:34;22.30;;;12.98;;
59038;SDS011;44824;43.376;19.630;2022-12-18T14:11:01;37.97;;;25.13;;
59038;SDS011;44824;43.376;19.630;2022-12-18T14:13:33;40.65;;;26.23;;
59038;SDS011;44824;43.376;19.630;2022-12-18T14:16:11;30.67;;;19.20;;
59038;SDS011;44824;43.376;19.630;2022-12-18T14:21:47;15.93;;;9.65;;
59038;SDS011;44824;43.376;19.630;2022-12-18T14:24:18;17.80;;;10.23;;
59038;SDS011;44824;43.376;19.630;2022-12-18T14:26:45;51.63;;;27.83;;
59038;SDS011;44824;43.376;19.630;2022-12-18T14:29:23;38.38;;;20.95;;
59038;SDS011;44824;43.376;19.630;2022-12-18T14:46:36;27.30;;;14.70;;
59038;SDS011;44824;43.376;19.630;2022-12-18T14:52:13;29.65;;;16.60;;
59038;SDS011;44824;43.376;19.630;2022-12-18T14:54:45;35.15;;;19.50;;
59038;SDS011;44824;43.376;19.630;2022-12-18T14:57:22;23.02;;;14.27;;
59038;SDS011;44824;43.376;19.630;2022-12-18T14:59:49;28.77;;;16.73;;
59038;SDS011;44824;43.376;19.630;2022-12-18T15:20:21;26.58;;;14.38;;
59038;SDS011;44824;43.376;19.630;2022-12-18T15:23:01;34.35;;;18.23;;
59038;SDS011;44824;43.376;19.630;2022-12-18T15:25:36;24.08;;;13.68;;
59038;SDS011;44824;43.376;19.630;2022-12-18T15:28:03;18.85;;;11.15;;
59038;SDS011;44824;43.376;19.630;2022-12-18T15:48:19;26.10;;;14.45;;
59038;SDS011;44824;43.376;19.630;2022-12-18T15:50:46;22.70;;;13.25;;
59038;SDS011;44824;43.376;19.630;2022-12-18T15:53:12;22.17;;;13.40;;
59038;SDS011;44824;43.376;19.630;2022-12-18T15:55:38;57.95;;;32.80;;
59038;SDS011;44824;43.376;19.630;2022-12-18T15:58:34;167.45;;;80.43;;
59038;SDS011;44824;43.376;19.630;2022-12-18T16:01:00;69.25;;;40.95;;
59038;SDS011;44824;43.376;19.630;2022-12-18T16:03:27;65.78;;;38.78;;
59038;SDS011;44824;43.376;19.630;2022-12-18T16:06:02;33.35;;;22.05;;
59038;SDS011;44824;43.376;19.630;2022-12-18T16:08:29;26.73;;;14.73;;
59038;SDS011;44824;43.376;19.630;2022-12-18T16:10:55;44.15;;;23.02;;
59038;SDS011;44824;43.376;19.630;2022-12-18T16:13:21;53.15;;;26.05;;
59038;SDS011;44824;43.376;19.630;2022-12-18T16:15:51;39.67;;;20.00;;
59038;SDS011;44824;43.376;19.630;2022-12-18T16:24:24;25.45;;;14.38;;
59038;SDS011;44824;43.376;19.630;2022-12-18T16:30:08;39.78;;;24.55;;
59038;SDS011;44824;43.376;19.630;2022-12-18T16:33:09;21.75;;;12.07;;
59038;SDS011;44824;43.376;19.630;2022-12-18T16:35:36;20.10;;;11.27;;
59038;SDS011;44824;43.376;19.630;2022-12-18T16:38:12;26.48;;;15.02;;
59038;SDS011;44824;43.376;19.630;2022-12-18T16:40:38;27.50;;;17.17;;
59038;SDS011;44824;43.376;19.630;2022-12-18T16:43:24;22.08;;;14.07;;
59038;SDS011;44824;43.376;19.630;2022-12-18T16:45:58;26.83;;;15.95;;
59038;SDS011;44824;43.376;19.630;2022-12-18T16:54:05;27.58;;;15.95;;
59038;SDS011;44824;43.376;19.630;2022-12-18T17:02:36;30.80;;;17.75;;
59038;SDS011;44824;43.376;19.630;2022-12-18T17:05:03;28.27;;;17.30;;
59038;SDS011;44824;43.376;19.630;2022-12-18T17:07:33;23.23;;;14.02;;
59038;SDS011;44824;43.376;19.630;2022-12-18T17:09:59;22.60;;;13.25;;
59038;SDS011;44824;43.376;19.630;2022-12-18T17:12:28;26.55;;;14.80;;
59038;SDS011;44824;43.376;19.630;2022-12-18T17:14:54;20.23;;;12.23;;
59038;SDS011;44824;43.376;19.630;2022-12-18T17:17:33;21.35;;;14.07;;
59038;SDS011;44824;43.376;19.630;2022-12-18T17:23:04;24.83;;;15.27;;
59038;SDS011;44824;43.376;19.630;2022-12-18T17:25:39;31.88;;;17.58;;
59038;SDS011;44824;43.376;19.630;2022-12-18T17:28:05;23.20;;;15.35;;
59038;SDS011;44824;43.376;19.630;2022-12-18T17:30:40;30.30;;;18.00;;
59038;SDS011;44824;43.376;19.630;2022-12-18T18:02:55;18.52;;;10.82;;
59038;SDS011;44824;43.376;19.630;2022-12-18T18:05:22;20.13;;;13.43;;
59038;SDS011;44824;43.376;19.630;2022-12-18T18:07:51;20.13;;;11.20;;
59038;SDS011;44824;43.376;19.630;2022-12-18T18:10:17;26.05;;;13.52;;
59038;SDS011;44824;43.376;19.630;2022-12-18T18:12:43;21.40;;;13.07;;
59038;SDS011;44824;43.376;19.630;2022-12-18T18:15:28;17.58;;;10.27;;
59038;SDS011;44824;43.376;19.630;2022-12-18T18:17:54;20.30;;;11.65;;
59038;SDS011;44824;43.376;19.630;2022-12-18T18:20:23;19.27;;;11.40;;
59038;SDS011;44824;43.376;19.630;2022-12-18T18:22:49;19.42;;;11.50;;
59038;SDS011;44824;43.376;19.630;2022-12-18T18:25:15;20.50;;;11.93;;
59038;SDS011;44824;43.376;19.630;2022-12-18T18:27:41;26.58;;;16.27;;
59038;SDS011;44824;43.376;19.630;2022-12-18T18:30:08;20.02;;;11.20;;
59038;SDS011;44824;43.376;19.630;2022-12-18T18:45:26;17.67;;;10.85;;
59038;SDS011;44824;43.376;19.630;2022-12-18T18:47:52;19.55;;;12.00;;
59038;SDS011;44824;43.376;19.630;2022-12-18T18:50:37;19.35;;;10.98;;
59038;SDS011;44824;43.376;19.630;2022-12-18T18:53:03;18.35;;;11.05;;
59038;SDS011;44824;43.376;19.630;2022-12-18T18:55:31;17.38;;;10.27;;
59038;SDS011;44824;43.376;19.630;2022-12-18T18:57:57;17.58;;;10.68;;
59038;SDS011;44824;43.376;19.630;2022-12-18T19:00:23;17.10;;;10.20;;
59038;SDS011;44824;43.376;19.630;2022-12-18T19:02:56;18.40;;;10.52;;
59038;SDS011;44824;43.376;19.630;2022-12-18T19:08:26;20.33;;;12.38;;
59038;SDS011;44824;43.376;19.630;2022-12-18T19:13:18;20.33;;;11.27;;
59038;SDS011;44824;43.376;19.630;2022-12-18T19:15:52;20.27;;;12.18;;
59038;SDS011;44824;43.376;19.630;2022-12-18T19:18:30;16.85;;;10.50;;
59038;SDS011;44824;43.376;19.630;2022-12-18T19:21:06;17.23;;;10.13;;
59038;SDS011;44824;43.376;19.630;2022-12-18T19:23:33;17.55;;;10.05;;
59038;SDS011;44824;43.376;19.630;2022-12-18T19:25:59;18.90;;;11.35;;
59038;SDS011;44824;43.376;19.630;2022-12-18T19:28:25;19.85;;;11.38;;
59038;SDS011;44824;43.376;19.630;2022-12-18T19:30:53;20.73;;;13.00;;
59038;SDS011;44824;43.376;19.630;2022-12-18T19:33:20;22.20;;;13.50;;
59038;SDS011;44824;43.376;19.630;2022-12-18T19:35:46;27.17;;;16.35;;
59038;SDS011;44824;43.376;19.630;2022-12-18T19:38:33;27.48;;;17.63;;
59038;SDS011;44824;43.376;19.630;2022-12-18T19:40:59;24.67;;;14.68;;
59038;SDS011;44824;43.376;19.630;2022-12-18T19:43:28;28.88;;;17.05;;
59038;SDS011;44824;43.376;19.630;2022-12-18T19:45:54;25.05;;;16.45;;
59038;SDS011;44824;43.376;19.630;2022-12-18T19:48:20;26.63;;;15.23;;
59038;SDS011;44824;43.376;19.630;2022-12-18T19:50:50;26.35;;;16.40;;
59038;SDS011;44824;43.376;19.630;2022-12-18T19:53:16;25.38;;;15.98;;
59038;SDS011;44824;43.376;19.630;2022-12-18T19:55:42;23.27;;;11.75;;
59038;SDS011;44824;43.376;19.630;2022-12-18T19:58:10;25.85;;;13.27;;
59038;SDS011;44824;43.376;19.630;2022-12-18T20:00:36;31.83;;;21.83;;
59038;SDS011;44824;43.376;19.630;2022-12-18T20:03:06;22.05;;;15.15;;
59038;SDS011;44824;43.376;19.630;2022-12-18T20:08:25;22.83;;;13.70;;
59038;SDS011;44824;43.376;19.630;2022-12-18T20:11:01;19.15;;;11.75;;
59038;SDS011;44824;43.376;19.630;2022-12-18T20:16:52;20.75;;;12.38;;
59038;SDS011;44824;43.376;19.630;2022-12-18T20:19:56;21.63;;;13.40;;
59038;SDS011;44824;43.376;19.630;2022-12-18T20:22:29;27.52;;;16.83;;
59038;SDS011;44824;43.376;19.630;2022-12-18T20:28:01;22.33;;;13.52;;
59038;SDS011;44824;43.376;19.630;2022-12-18T20:33:50;23.65;;;15.63;;
59038;SDS011;44824;43.376;19.630;2022-12-18T20:36:28;22.63;;;13.90;;
59038;SDS011;44824;43.376;19.630;2022-12-18T20:38:54;27.65;;;16.13;;
59038;SDS011;44824;43.376;19.630;2022-12-18T20:41:21;30.50;;;15.85;;
59038;SDS011;44824;43.376;19.630;2022-12-18T20:43:48;22.48;;;14.82;;
59038;SDS011;44824;43.376;19.630;2022-12-18T20:46:20;21.30;;;13.30;;
59038;SDS011;44824;43.376;19.630;2022-12-18T20:48:46;25.30;;;14.65;;
59038;SDS011;44824;43.376;19.630;2022-12-18T20:54:03;27.95;;;18.30;;
59038;SDS011;44824;43.376;19.630;2022-12-18T20:56:35;29.38;;;17.98;;
59038;SDS011;44824;43.376;19.630;2022-12-18T20:59:04;23.83;;;15.85;;
59038;SDS011;44824;43.376;19.630;2022-12-18T21:01:31;27.80;;;16.70;;
59038;SDS011;44824;43.376;19.630;2022-12-18T21:03:57;28.90;;;18.15;;
59038;SDS011;44824;43.376;19.630;2022-12-18T21:06:24;26.55;;;17.13;;
59038;SDS011;44824;43.376;19.630;2022-12-18T21:09:00;49.22;;;27.05;;
59038;SDS011;44824;43.376;19.630;2022-12-18T21:11:28;33.00;;;20.85;;
59038;SDS011;44824;43.376;19.630;2022-12-18T21:14:20;52.13;;;35.42;;
59038;SDS011;44824;43.376;19.630;2022-12-18T21:16:47;35.80;;;24.73;;
59038;SDS011;44824;43.376;19.630;2022-12-18T21:19:14;29.00;;;19.95;;
59038;SDS011;44824;43.376;19.630;2022-12-18T21:21:58;33.83;;;20.40;;
59038;SDS011;44824;43.376;19.630;2022-12-18T21:24:28;39.65;;;22.40;;
59038;SDS011;44824;43.376;19.630;2022-12-18T21:30:02;30.15;;;18.38;;
59038;SDS011;44824;43.376;19.630;2022-12-18T21:32:29;27.13;;;17.90;;
59038;SDS011;44824;43.376;19.630;2022-12-18T21:47:32;58.42;;;33.28;;
59038;SDS011;44824;43.376;19.630;2022-12-18T21:50:02;52.47;;;33.90;;
59038;SDS011;44824;43.376;19.630;2022-12-18T21:52:38;49.92;;;31.30;;
59038;SDS011;44824;43.376;19.630;2022-12-18T21:55:04;49.67;;;30.98;;
59038;SDS011;44824;43.376;19.630;2022-12-18T21:57:37;43.72;;;28.02;;
59038;SDS011;44824;43.376;19.630;2022-12-18T22:00:04;43.60;;;26.85;;
59038;SDS011;44824;43.376;19.630;2022-12-18T22:02:43;41.35;;;26.75;;
59038;SDS011;44824;43.376;19.630;2022-12-18T22:05:15;40.22;;;26.65;;
59038;SDS011;44824;43.376;19.630;2022-12-18T22:11:03;40.30;;;25.02;;
59038;SDS011;44824;43.376;19.630;2022-12-18T22:13:33;40.45;;;24.75;;
59038;SDS011;44824;43.376;19.630;2022-12-18T22:16:08;39.50;;;25.30;;
59038;SDS011;44824;43.376;19.630;2022-12-18T22:21:41;34.38;;;20.75;;
59038;SDS011;44824;43.376;19.630;2022-12-18T22:32:48;23.38;;;13.77;;
59038;SDS011;44824;43.376;19.630;2022-12-18T22:35:24;25.33;;;15.40;;
59038;SDS011;44824;43.376;19.630;2022-12-18T22:37:57;24.35;;;15.60;;
59038;SDS011;44824;43.376;19.630;2022-12-18T22:40:32;24.10;;;14.90;;
59038;SDS011;44824;43.376;19.630;2022-12-18T22:43:08;25.75;;;15.40;;
59038;SDS011;44824;43.376;19.630;2022-12-18T22:45:49;21.95;;;13.15;;
59038;SDS011;44824;43.376;19.630;2022-12-18T22:48:27;22.90;;;14.02;;
59038;SDS011;44824;43.376;19.630;2022-12-18T22:51:13;23.02;;;14.35;;
59038;SDS011;44824;43.376;19.630;2022-12-18T22:54:08;25.30;;;15.50;;
59038;SDS011;44824;43.376;19.630;2022-12-18T23:02:52;24.33;;;15.05;;
59038;SDS011;44824;43.376;19.630;2022-12-18T23:05:21;21.37;;;13.50;;
59038;SDS011;44824;43.376;19.630;2022-12-18T23:07:59;22.42;;;14.20;;
59038;SDS011;44824;43.376;19.630;2022-12-18T23:10:28;22.63;;;14.15;;
59038;SDS011;44824;43.376;19.630;2022-12-18T23:13:06;23.85;;;14.52;;
59038;SDS011;44824;43.376;19.630;2022-12-18T23:15:33;23.77;;;14.23;;
59038;SDS011;44824;43.376;19.630;2022-12-18T23:33:36;23.13;;;14.20;;
59038;SDS011;44824;43.376;19.630;2022-12-18T23:50:34;26.05;;;15.32;;
59038;SDS011;44824;43.376;19.630;2022-12-18T23:53:19;24.38;;;15.38;;
59038;SDS011;44824;43.376;19.630;2022-12-18T23:55:45;24.45;;;15.35;;
59038;SDS011;44824;43.376;19.630;2022-12-18T23:58:18;25.33;;;14.93;;
